sensor_id;sensor_type;location;lat;lon;timestamp;P1;durP1;ratioP1;P2;durP2;ratioP2
20110;SDS011;10216;42.658;23.248;2023-04-19T00:00:33;0.33;;;0.33;;
20110;SDS011;10216;42.658;23.248;2023-04-19T00:03:00;0.40;;;0.40;;
20110;SDS011;10216;42.658;23.248;2023-04-19T00:05:26;0.30;;;0.30;;
20110;SDS011;10216;42.658;23.248;2023-04-19T00:07:51;0.20;;;0.20;;
20110;SDS011;10216;42.658;23.248;2023-04-19T00:10:17;0.30;;;0.30;;
20110;SDS011;10216;42.658;23.248;2023-04-19T00:12:43;0.30;;;0.30;;
20110;SDS011;10216;42.658;23.248;2023-04-19T00:15:09;0.40;;;0.20;;
20110;SDS011;10216;42.658;23.248;2023-04-19T00:17:34;0.30;;;0.30;;
20110;SDS011;10216;42.658;23.248;2023-04-19T00:19:59;0.20;;;0.20;;
20110;SDS011;10216;42.658;23.248;2023-04-19T00:22:25;0.20;;;0.20;;
20110;SDS011;10216;42.658;23.248;2023-04-19T00:24:50;0.20;;;0.20;;
20110;SDS011;10216;42.658;23.248;2023-04-19T00:27:16;0.43;;;0.43;;
20110;SDS011;10216;42.658;23.248;2023-04-19T00:29:41;0.27;;;0.27;;
20110;SDS011;10216;42.658;23.248;2023-04-19T00:32:06;0.20;;;0.20;;
20110;SDS011;10216;42.658;23.248;2023-04-19T00:34:32;0.40;;;0.40;;
20110;SDS011;10216;42.658;23.248;2023-04-19T00:36:58;0.83;;;0.83;;
20110;SDS011;10216;42.658;23.248;2023-04-19T00:39:23;0.27;;;0.27;;
20110;SDS011;10216;42.658;23.248;2023-04-19T00:41:48;0.73;;;0.40;;
20110;SDS011;10216;42.658;23.248;2023-04-19T00:44:13;0.40;;;0.40;;
20110;SDS011;10216;42.658;23.248;2023-04-19T00:46:39;0.30;;;0.30;;
20110;SDS011;10216;42.658;23.248;2023-04-19T00:49:05;0.77;;;0.40;;
20110;SDS011;10216;42.658;23.248;2023-04-19T00:51:30;0.50;;;0.50;;
20110;SDS011;10216;42.658;23.248;2023-04-19T00:53:55;0.23;;;0.23;;
20110;SDS011;10216;42.658;23.248;2023-04-19T00:56:21;0.30;;;0.30;;
20110;SDS011;10216;42.658;23.248;2023-04-19T00:58:48;0.20;;;0.20;;
20110;SDS011;10216;42.658;23.248;2023-04-19T01:01:13;0.30;;;0.30;;
20110;SDS011;10216;42.658;23.248;2023-04-19T01:03:38;0.20;;;0.20;;
20110;SDS011;10216;42.658;23.248;2023-04-19T01:06:03;0.33;;;0.33;;
20110;SDS011;10216;42.658;23.248;2023-04-19T01:08:29;0.20;;;0.20;;
20110;SDS011;10216;42.658;23.248;2023-04-19T01:10:54;0.27;;;0.27;;
20110;SDS011;10216;42.658;23.248;2023-04-19T01:13:19;0.23;;;0.23;;
20110;SDS011;10216;42.658;23.248;2023-04-19T01:15:45;0.93;;;0.30;;
20110;SDS011;10216;42.658;23.248;2023-04-19T01:18:12;0.30;;;0.30;;
20110;SDS011;10216;42.658;23.248;2023-04-19T01:20:38;0.20;;;0.20;;
20110;SDS011;10216;42.658;23.248;2023-04-19T01:23:03;1.07;;;0.40;;
20110;SDS011;10216;42.658;23.248;2023-04-19T01:25:28;0.30;;;0.30;;
20110;SDS011;10216;42.658;23.248;2023-04-19T01:27:54;2.10;;;0.70;;
20110;SDS011;10216;42.658;23.248;2023-04-19T01:30:19;0.33;;;0.33;;
20110;SDS011;10216;42.658;23.248;2023-04-19T01:32:44;0.27;;;0.27;;
20110;SDS011;10216;42.658;23.248;2023-04-19T01:35:09;0.30;;;0.30;;
20110;SDS011;10216;42.658;23.248;2023-04-19T01:37:37;0.47;;;0.47;;
20110;SDS011;10216;42.658;23.248;2023-04-19T01:40:03;0.60;;;0.40;;
20110;SDS011;10216;42.658;23.248;2023-04-19T01:42:29;0.33;;;0.30;;
20110;SDS011;10216;42.658;23.248;2023-04-19T01:44:54;0.47;;;0.30;;
20110;SDS011;10216;42.658;23.248;2023-04-19T01:47:20;0.30;;;0.30;;
20110;SDS011;10216;42.658;23.248;2023-04-19T01:49:45;0.80;;;0.47;;
20110;SDS011;10216;42.658;23.248;2023-04-19T01:52:10;0.40;;;0.40;;
20110;SDS011;10216;42.658;23.248;2023-04-19T01:54:36;0.87;;;0.23;;
20110;SDS011;10216;42.658;23.248;2023-04-19T01:57:01;0.30;;;0.30;;
20110;SDS011;10216;42.658;23.248;2023-04-19T01:59:26;0.30;;;0.30;;
20110;SDS011;10216;42.658;23.248;2023-04-19T02:01:52;0.40;;;0.40;;
20110;SDS011;10216;42.658;23.248;2023-04-19T02:04:18;0.50;;;0.50;;
20110;SDS011;10216;42.658;23.248;2023-04-19T02:06:44;0.37;;;0.37;;
20110;SDS011;10216;42.658;23.248;2023-04-19T02:09:09;0.60;;;0.53;;
20110;SDS011;10216;42.658;23.248;2023-04-19T02:11:35;0.20;;;0.20;;
20110;SDS011;10216;42.658;23.248;2023-04-19T02:14:00;0.50;;;0.50;;
20110;SDS011;10216;42.658;23.248;2023-04-19T02:16:25;0.40;;;0.40;;
20110;SDS011;10216;42.658;23.248;2023-04-19T02:18:51;1.93;;;0.43;;
20110;SDS011;10216;42.658;23.248;2023-04-19T02:21:17;0.40;;;0.40;;
20110;SDS011;10216;42.658;23.248;2023-04-19T02:23:42;0.40;;;0.40;;
20110;SDS011;10216;42.658;23.248;2023-04-19T02:26:07;0.37;;;0.37;;
20110;SDS011;10216;42.658;23.248;2023-04-19T02:28:32;0.40;;;0.40;;
20110;SDS011;10216;42.658;23.248;2023-04-19T02:30:58;0.60;;;0.60;;
20110;SDS011;10216;42.658;23.248;2023-04-19T02:33:24;0.60;;;0.60;;
20110;SDS011;10216;42.658;23.248;2023-04-19T02:35:50;0.40;;;0.40;;
20110;SDS011;10216;42.658;23.248;2023-04-19T02:38:15;0.47;;;0.47;;
20110;SDS011;10216;42.658;23.248;2023-04-19T02:40:40;0.43;;;0.43;;
20110;SDS011;10216;42.658;23.248;2023-04-19T02:43:05;0.60;;;0.47;;
20110;SDS011;10216;42.658;23.248;2023-04-19T02:45:31;1.00;;;0.90;;
20110;SDS011;10216;42.658;23.248;2023-04-19T02:47:56;0.60;;;0.60;;
20110;SDS011;10216;42.658;23.248;2023-04-19T02:50:22;0.63;;;0.63;;
20110;SDS011;10216;42.658;23.248;2023-04-19T02:52:48;0.50;;;0.50;;
20110;SDS011;10216;42.658;23.248;2023-04-19T02:55:13;1.50;;;0.70;;
20110;SDS011;10216;42.658;23.248;2023-04-19T02:57:38;1.87;;;0.50;;
20110;SDS011;10216;42.658;23.248;2023-04-19T03:00:03;0.63;;;0.63;;
20110;SDS011;10216;42.658;23.248;2023-04-19T03:02:29;0.50;;;0.50;;
20110;SDS011;10216;42.658;23.248;2023-04-19T03:04:55;0.43;;;0.43;;
20110;SDS011;10216;42.658;23.248;2023-04-19T03:07:20;0.50;;;0.50;;
20110;SDS011;10216;42.658;23.248;2023-04-19T03:09:45;0.70;;;0.60;;
20110;SDS011;10216;42.658;23.248;2023-04-19T03:12:11;0.60;;;0.47;;
20110;SDS011;10216;42.658;23.248;2023-04-19T03:14:36;0.50;;;0.50;;
20110;SDS011;10216;42.658;23.248;2023-04-19T03:17:01;1.43;;;1.00;;
20110;SDS011;10216;42.658;23.248;2023-04-19T03:19:27;0.53;;;0.53;;
20110;SDS011;10216;42.658;23.248;2023-04-19T03:21:52;0.77;;;0.50;;
20110;SDS011;10216;42.658;23.248;2023-04-19T03:24:17;0.50;;;0.47;;
20110;SDS011;10216;42.658;23.248;2023-04-19T03:26:43;0.80;;;0.77;;
20110;SDS011;10216;42.658;23.248;2023-04-19T03:29:10;0.33;;;0.33;;
20110;SDS011;10216;42.658;23.248;2023-04-19T03:31:35;0.60;;;0.60;;
20110;SDS011;10216;42.658;23.248;2023-04-19T03:34:00;0.53;;;0.53;;
20110;SDS011;10216;42.658;23.248;2023-04-19T03:36:25;0.43;;;0.43;;
20110;SDS011;10216;42.658;23.248;2023-04-19T03:38:51;0.80;;;0.80;;
20110;SDS011;10216;42.658;23.248;2023-04-19T03:41:20;0.60;;;0.60;;
20110;SDS011;10216;42.658;23.248;2023-04-19T03:43:45;0.40;;;0.40;;
20110;SDS011;10216;42.658;23.248;2023-04-19T03:46:10;0.40;;;0.40;;
20110;SDS011;10216;42.658;23.248;2023-04-19T03:48:35;0.50;;;0.50;;
20110;SDS011;10216;42.658;23.248;2023-04-19T03:51:01;0.40;;;0.40;;
20110;SDS011;10216;42.658;23.248;2023-04-19T03:53:26;0.40;;;0.40;;
20110;SDS011;10216;42.658;23.248;2023-04-19T03:55:51;0.60;;;0.60;;
20110;SDS011;10216;42.658;23.248;2023-04-19T03:58:16;0.80;;;0.80;;
20110;SDS011;10216;42.658;23.248;2023-04-19T04:00:42;0.37;;;0.37;;
20110;SDS011;10216;42.658;23.248;2023-04-19T04:03:07;1.30;;;0.23;;
20110;SDS011;10216;42.658;23.248;2023-04-19T04:05:33;0.53;;;0.53;;
20110;SDS011;10216;42.658;23.248;2023-04-19T04:07:58;0.50;;;0.50;;
20110;SDS011;10216;42.658;23.248;2023-04-19T04:10:23;0.40;;;0.40;;
20110;SDS011;10216;42.658;23.248;2023-04-19T04:12:49;0.33;;;0.33;;
20110;SDS011;10216;42.658;23.248;2023-04-19T04:15:14;0.47;;;0.47;;
20110;SDS011;10216;42.658;23.248;2023-04-19T04:17:39;0.20;;;0.20;;
20110;SDS011;10216;42.658;23.248;2023-04-19T04:20:05;0.30;;;0.27;;
20110;SDS011;10216;42.658;23.248;2023-04-19T04:22:31;0.63;;;0.63;;
20110;SDS011;10216;42.658;23.248;2023-04-19T04:24:59;0.60;;;0.60;;
20110;SDS011;10216;42.658;23.248;2023-04-19T04:27:26;0.47;;;0.47;;
20110;SDS011;10216;42.658;23.248;2023-04-19T04:29:51;0.57;;;0.57;;
20110;SDS011;10216;42.658;23.248;2023-04-19T04:32:16;0.93;;;0.57;;
20110;SDS011;10216;42.658;23.248;2023-04-19T04:34:42;0.90;;;0.90;;
20110;SDS011;10216;42.658;23.248;2023-04-19T04:37:08;0.83;;;0.83;;
20110;SDS011;10216;42.658;23.248;2023-04-19T04:39:34;0.40;;;0.40;;
20110;SDS011;10216;42.658;23.248;2023-04-19T04:42:03;0.40;;;0.40;;
20110;SDS011;10216;42.658;23.248;2023-04-19T04:44:29;0.30;;;0.30;;
20110;SDS011;10216;42.658;23.248;2023-04-19T04:46:54;0.73;;;0.73;;
20110;SDS011;10216;42.658;23.248;2023-04-19T04:49:19;0.47;;;0.47;;
20110;SDS011;10216;42.658;23.248;2023-04-19T04:51:45;1.13;;;0.40;;
20110;SDS011;10216;42.658;23.248;2023-04-19T04:54:10;0.53;;;0.53;;
20110;SDS011;10216;42.658;23.248;2023-04-19T04:56:35;0.77;;;0.77;;
20110;SDS011;10216;42.658;23.248;2023-04-19T04:59:01;0.77;;;0.77;;
20110;SDS011;10216;42.658;23.248;2023-04-19T05:01:26;0.57;;;0.57;;
20110;SDS011;10216;42.658;23.248;2023-04-19T05:03:51;0.40;;;0.40;;
20110;SDS011;10216;42.658;23.248;2023-04-19T05:06:16;0.50;;;0.50;;
20110;SDS011;10216;42.658;23.248;2023-04-19T05:08:42;0.50;;;0.50;;
20110;SDS011;10216;42.658;23.248;2023-04-19T05:11:08;0.47;;;0.47;;
20110;SDS011;10216;42.658;23.248;2023-04-19T05:13:34;0.53;;;0.53;;
20110;SDS011;10216;42.658;23.248;2023-04-19T05:15:59;0.50;;;0.50;;
20110;SDS011;10216;42.658;23.248;2023-04-19T05:18:24;0.40;;;0.40;;
20110;SDS011;10216;42.658;23.248;2023-04-19T05:20:49;0.40;;;0.40;;
20110;SDS011;10216;42.658;23.248;2023-04-19T05:23:15;0.47;;;0.47;;
20110;SDS011;10216;42.658;23.248;2023-04-19T05:25:40;0.50;;;0.50;;
20110;SDS011;10216;42.658;23.248;2023-04-19T05:28:06;0.80;;;0.50;;
20110;SDS011;10216;42.658;23.248;2023-04-19T05:30:31;0.40;;;0.40;;
20110;SDS011;10216;42.658;23.248;2023-04-19T05:32:56;0.57;;;0.50;;
20110;SDS011;10216;42.658;23.248;2023-04-19T05:35:21;0.40;;;0.40;;
20110;SDS011;10216;42.658;23.248;2023-04-19T05:37:47;4.43;;;1.53;;
20110;SDS011;10216;42.658;23.248;2023-04-19T05:40:12;0.80;;;0.60;;
20110;SDS011;10216;42.658;23.248;2023-04-19T05:42:37;0.40;;;0.40;;
20110;SDS011;10216;42.658;23.248;2023-04-19T05:45:03;0.40;;;0.40;;
20110;SDS011;10216;42.658;23.248;2023-04-19T05:47:28;0.87;;;0.67;;
20110;SDS011;10216;42.658;23.248;2023-04-19T05:49:53;1.10;;;0.90;;
20110;SDS011;10216;42.658;23.248;2023-04-19T05:52:19;0.40;;;0.40;;
20110;SDS011;10216;42.658;23.248;2023-04-19T05:54:44;0.50;;;0.50;;
20110;SDS011;10216;42.658;23.248;2023-04-19T05:57:09;0.60;;;0.60;;
20110;SDS011;10216;42.658;23.248;2023-04-19T05:59:35;0.53;;;0.53;;
20110;SDS011;10216;42.658;23.248;2023-04-19T06:02:02;0.73;;;0.73;;
20110;SDS011;10216;42.658;23.248;2023-04-19T06:04:30;0.63;;;0.50;;
20110;SDS011;10216;42.658;23.248;2023-04-19T06:06:55;1.00;;;0.90;;
20110;SDS011;10216;42.658;23.248;2023-04-19T06:09:20;0.40;;;0.40;;
20110;SDS011;10216;42.658;23.248;2023-04-19T06:11:46;1.17;;;1.03;;
20110;SDS011;10216;42.658;23.248;2023-04-19T06:14:11;0.63;;;0.40;;
20110;SDS011;10216;42.658;23.248;2023-04-19T06:16:39;0.37;;;0.37;;
20110;SDS011;10216;42.658;23.248;2023-04-19T06:19:05;0.50;;;0.50;;
20110;SDS011;10216;42.658;23.248;2023-04-19T06:21:31;0.53;;;0.53;;
20110;SDS011;10216;42.658;23.248;2023-04-19T06:23:57;0.77;;;0.70;;
20110;SDS011;10216;42.658;23.248;2023-04-19T06:26:22;0.50;;;0.50;;
20110;SDS011;10216;42.658;23.248;2023-04-19T06:28:47;0.40;;;0.40;;
20110;SDS011;10216;42.658;23.248;2023-04-19T06:31:14;0.47;;;0.47;;
20110;SDS011;10216;42.658;23.248;2023-04-19T06:33:39;0.47;;;0.47;;
20110;SDS011;10216;42.658;23.248;2023-04-19T06:36:05;0.87;;;0.83;;
20110;SDS011;10216;42.658;23.248;2023-04-19T06:38:30;0.40;;;0.40;;
20110;SDS011;10216;42.658;23.248;2023-04-19T06:40:55;0.40;;;0.40;;
20110;SDS011;10216;42.658;23.248;2023-04-19T06:43:20;1.03;;;0.40;;
20110;SDS011;10216;42.658;23.248;2023-04-19T06:45:46;0.60;;;0.60;;
20110;SDS011;10216;42.658;23.248;2023-04-19T06:48:11;0.57;;;0.57;;
20110;SDS011;10216;42.658;23.248;2023-04-19T06:50:36;0.50;;;0.50;;
20110;SDS011;10216;42.658;23.248;2023-04-19T06:53:02;0.90;;;0.60;;
20110;SDS011;10216;42.658;23.248;2023-04-19T06:55:27;0.70;;;0.60;;
20110;SDS011;10216;42.658;23.248;2023-04-19T06:57:52;0.30;;;0.30;;
20110;SDS011;10216;42.658;23.248;2023-04-19T07:00:17;0.57;;;0.57;;
20110;SDS011;10216;42.658;23.248;2023-04-19T07:02:43;0.70;;;0.70;;
20110;SDS011;10216;42.658;23.248;2023-04-19T07:05:08;1.13;;;0.57;;
20110;SDS011;10216;42.658;23.248;2023-04-19T07:07:33;0.50;;;0.50;;
20110;SDS011;10216;42.658;23.248;2023-04-19T07:10:01;0.40;;;0.40;;
20110;SDS011;10216;42.658;23.248;2023-04-19T07:12:27;0.87;;;0.73;;
20110;SDS011;10216;42.658;23.248;2023-04-19T07:14:52;0.60;;;0.60;;
20110;SDS011;10216;42.658;23.248;2023-04-19T07:17:20;0.30;;;0.30;;
20110;SDS011;10216;42.658;23.248;2023-04-19T07:19:46;0.30;;;0.30;;
20110;SDS011;10216;42.658;23.248;2023-04-19T07:22:12;0.40;;;0.40;;
20110;SDS011;10216;42.658;23.248;2023-04-19T07:24:37;0.57;;;0.57;;
20110;SDS011;10216;42.658;23.248;2023-04-19T07:27:07;0.43;;;0.43;;
20110;SDS011;10216;42.658;23.248;2023-04-19T07:29:33;0.40;;;0.40;;
20110;SDS011;10216;42.658;23.248;2023-04-19T07:31:58;0.60;;;0.60;;
20110;SDS011;10216;42.658;23.248;2023-04-19T07:34:25;0.40;;;0.40;;
20110;SDS011;10216;42.658;23.248;2023-04-19T07:36:50;0.63;;;0.50;;
20110;SDS011;10216;42.658;23.248;2023-04-19T07:39:16;0.53;;;0.53;;
20110;SDS011;10216;42.658;23.248;2023-04-19T07:41:41;0.40;;;0.40;;
20110;SDS011;10216;42.658;23.248;2023-04-19T07:44:06;0.20;;;0.20;;
20110;SDS011;10216;42.658;23.248;2023-04-19T07:46:31;0.50;;;0.43;;
20110;SDS011;10216;42.658;23.248;2023-04-19T07:48:57;0.80;;;0.80;;
20110;SDS011;10216;42.658;23.248;2023-04-19T07:51:22;0.60;;;0.50;;
20110;SDS011;10216;42.658;23.248;2023-04-19T07:53:48;0.50;;;0.50;;
20110;SDS011;10216;42.658;23.248;2023-04-19T07:56:14;0.30;;;0.30;;
20110;SDS011;10216;42.658;23.248;2023-04-19T07:58:39;0.60;;;0.60;;
20110;SDS011;10216;42.658;23.248;2023-04-19T08:01:05;0.30;;;0.30;;
20110;SDS011;10216;42.658;23.248;2023-04-19T08:03:32;0.33;;;0.33;;
20110;SDS011;10216;42.658;23.248;2023-04-19T08:05:59;0.40;;;0.40;;
20110;SDS011;10216;42.658;23.248;2023-04-19T08:08:27;1.30;;;0.50;;
20110;SDS011;10216;42.658;23.248;2023-04-19T08:10:52;0.60;;;0.50;;
20110;SDS011;10216;42.658;23.248;2023-04-19T08:13:20;0.40;;;0.40;;
20110;SDS011;10216;42.658;23.248;2023-04-19T08:15:46;0.40;;;0.40;;
20110;SDS011;10216;42.658;23.248;2023-04-19T08:18:11;0.40;;;0.40;;
20110;SDS011;10216;42.658;23.248;2023-04-19T08:20:36;0.23;;;0.23;;
20110;SDS011;10216;42.658;23.248;2023-04-19T08:23:02;0.80;;;0.70;;
20110;SDS011;10216;42.658;23.248;2023-04-19T08:25:27;0.50;;;0.40;;
20110;SDS011;10216;42.658;23.248;2023-04-19T08:27:53;0.50;;;0.50;;
20110;SDS011;10216;42.658;23.248;2023-04-19T08:30:18;0.30;;;0.30;;
20110;SDS011;10216;42.658;23.248;2023-04-19T08:32:43;0.33;;;0.33;;
20110;SDS011;10216;42.658;23.248;2023-04-19T08:35:09;0.40;;;0.40;;
20110;SDS011;10216;42.658;23.248;2023-04-19T08:37:34;0.30;;;0.30;;
20110;SDS011;10216;42.658;23.248;2023-04-19T08:40:00;0.70;;;0.40;;
20110;SDS011;10216;42.658;23.248;2023-04-19T08:42:27;0.63;;;0.50;;
20110;SDS011;10216;42.658;23.248;2023-04-19T08:44:53;0.60;;;0.60;;
20110;SDS011;10216;42.658;23.248;2023-04-19T08:47:21;0.37;;;0.37;;
20110;SDS011;10216;42.658;23.248;2023-04-19T08:49:46;0.97;;;0.60;;
20110;SDS011;10216;42.658;23.248;2023-04-19T08:52:12;0.47;;;0.47;;
20110;SDS011;10216;42.658;23.248;2023-04-19T08:54:37;0.70;;;0.67;;
20110;SDS011;10216;42.658;23.248;2023-04-19T08:57:02;0.63;;;0.63;;
20110;SDS011;10216;42.658;23.248;2023-04-19T08:59:29;1.63;;;0.70;;
20110;SDS011;10216;42.658;23.248;2023-04-19T09:01:59;0.50;;;0.50;;
20110;SDS011;10216;42.658;23.248;2023-04-19T09:04:24;0.50;;;0.50;;
20110;SDS011;10216;42.658;23.248;2023-04-19T09:06:50;0.70;;;0.70;;
20110;SDS011;10216;42.658;23.248;2023-04-19T09:09:22;1.07;;;0.40;;
20110;SDS011;10216;42.658;23.248;2023-04-19T09:11:48;0.83;;;0.83;;
20110;SDS011;10216;42.658;23.248;2023-04-19T09:14:14;0.53;;;0.53;;
20110;SDS011;10216;42.658;23.248;2023-04-19T09:16:39;0.80;;;0.60;;
20110;SDS011;10216;42.658;23.248;2023-04-19T09:19:05;0.50;;;0.50;;
20110;SDS011;10216;42.658;23.248;2023-04-19T09:21:31;0.33;;;0.33;;
20110;SDS011;10216;42.658;23.248;2023-04-19T09:23:57;0.60;;;0.60;;
20110;SDS011;10216;42.658;23.248;2023-04-19T09:26:22;0.40;;;0.40;;
20110;SDS011;10216;42.658;23.248;2023-04-19T09:29:06;0.40;;;0.40;;
20110;SDS011;10216;42.658;23.248;2023-04-19T09:31:32;0.50;;;0.50;;
20110;SDS011;10216;42.658;23.248;2023-04-19T09:34:11;0.47;;;0.37;;
20110;SDS011;10216;42.658;23.248;2023-04-19T09:36:36;0.67;;;0.50;;
20110;SDS011;10216;42.658;23.248;2023-04-19T09:39:01;0.40;;;0.40;;
20110;SDS011;10216;42.658;23.248;2023-04-19T09:41:26;0.47;;;0.47;;
20110;SDS011;10216;42.658;23.248;2023-04-19T09:43:52;0.73;;;0.73;;
20110;SDS011;10216;42.658;23.248;2023-04-19T09:51:47;0.33;;;0.33;;
20110;SDS011;10216;42.658;23.248;2023-04-19T09:54:13;0.40;;;0.40;;
20110;SDS011;10216;42.658;23.248;2023-04-19T09:56:38;1.13;;;0.50;;
20110;SDS011;10216;42.658;23.248;2023-04-19T09:59:04;0.80;;;0.60;;
20110;SDS011;10216;42.658;23.248;2023-04-19T10:01:41;0.93;;;0.60;;
20110;SDS011;10216;42.658;23.248;2023-04-19T10:04:08;0.67;;;0.60;;
20110;SDS011;10216;42.658;23.248;2023-04-19T10:06:34;0.83;;;0.83;;
20110;SDS011;10216;42.658;23.248;2023-04-19T10:09:01;0.50;;;0.50;;
20110;SDS011;10216;42.658;23.248;2023-04-19T10:11:30;0.40;;;0.40;;
20110;SDS011;10216;42.658;23.248;2023-04-19T10:13:56;0.40;;;0.40;;
20110;SDS011;10216;42.658;23.248;2023-04-19T10:16:23;0.50;;;0.40;;
20110;SDS011;10216;42.658;23.248;2023-04-19T10:18:49;0.37;;;0.37;;
20110;SDS011;10216;42.658;23.248;2023-04-19T10:21:16;0.30;;;0.30;;
20110;SDS011;10216;42.658;23.248;2023-04-19T10:23:43;0.40;;;0.40;;
20110;SDS011;10216;42.658;23.248;2023-04-19T10:26:08;0.47;;;0.47;;
20110;SDS011;10216;42.658;23.248;2023-04-19T10:28:34;0.77;;;0.70;;
20110;SDS011;10216;42.658;23.248;2023-04-19T10:31:02;0.30;;;0.30;;
20110;SDS011;10216;42.658;23.248;2023-04-19T10:33:33;0.47;;;0.40;;
20110;SDS011;10216;42.658;23.248;2023-04-19T10:35:59;0.53;;;0.43;;
20110;SDS011;10216;42.658;23.248;2023-04-19T10:38:34;0.50;;;0.50;;
20110;SDS011;10216;42.658;23.248;2023-04-19T10:41:00;0.30;;;0.30;;
20110;SDS011;10216;42.658;23.248;2023-04-19T10:43:33;0.30;;;0.30;;
20110;SDS011;10216;42.658;23.248;2023-04-19T10:46:01;0.67;;;0.50;;
20110;SDS011;10216;42.658;23.248;2023-04-19T10:56:08;0.50;;;0.50;;
20110;SDS011;10216;42.658;23.248;2023-04-19T11:03:56;0.40;;;0.40;;
20110;SDS011;10216;42.658;23.248;2023-04-19T11:06:21;0.30;;;0.30;;
20110;SDS011;10216;42.658;23.248;2023-04-19T11:08:51;0.83;;;0.60;;
20110;SDS011;10216;42.658;23.248;2023-04-19T11:11:19;0.40;;;0.40;;
20110;SDS011;10216;42.658;23.248;2023-04-19T11:13:46;0.40;;;0.40;;
20110;SDS011;10216;42.658;23.248;2023-04-19T11:16:11;0.60;;;0.60;;
20110;SDS011;10216;42.658;23.248;2023-04-19T11:18:36;0.70;;;0.70;;
20110;SDS011;10216;42.658;23.248;2023-04-19T11:21:02;0.33;;;0.33;;
20110;SDS011;10216;42.658;23.248;2023-04-19T11:23:27;0.50;;;0.50;;
20110;SDS011;10216;42.658;23.248;2023-04-19T11:25:53;0.30;;;0.30;;
20110;SDS011;10216;42.658;23.248;2023-04-19T11:28:19;0.53;;;0.53;;
20110;SDS011;10216;42.658;23.248;2023-04-19T11:30:45;0.50;;;0.50;;
20110;SDS011;10216;42.658;23.248;2023-04-19T11:33:11;0.47;;;0.47;;
20110;SDS011;10216;42.658;23.248;2023-04-19T11:35:37;1.00;;;0.60;;
20110;SDS011;10216;42.658;23.248;2023-04-19T11:38:02;0.40;;;0.40;;
20110;SDS011;10216;42.658;23.248;2023-04-19T11:40:29;0.50;;;0.50;;
20110;SDS011;10216;42.658;23.248;2023-04-19T11:42:55;0.50;;;0.50;;
20110;SDS011;10216;42.658;23.248;2023-04-19T11:47:56;0.40;;;0.30;;
20110;SDS011;10216;42.658;23.248;2023-04-19T11:53:09;0.37;;;0.37;;
20110;SDS011;10216;42.658;23.248;2023-04-19T11:55:34;0.40;;;0.40;;
20110;SDS011;10216;42.658;23.248;2023-04-19T11:58:00;0.77;;;0.40;;
20110;SDS011;10216;42.658;23.248;2023-04-19T12:00:26;0.97;;;0.30;;
20110;SDS011;10216;42.658;23.248;2023-04-19T12:02:51;0.30;;;0.30;;
20110;SDS011;10216;42.658;23.248;2023-04-19T12:05:17;0.20;;;0.20;;
20110;SDS011;10216;42.658;23.248;2023-04-19T12:08:02;0.28;;;0.28;;
20110;SDS011;10216;42.658;23.248;2023-04-19T12:10:28;0.40;;;0.40;;
20110;SDS011;10216;42.658;23.248;2023-04-19T12:12:53;0.83;;;0.57;;
20110;SDS011;10216;42.658;23.248;2023-04-19T12:15:18;0.30;;;0.30;;
20110;SDS011;10216;42.658;23.248;2023-04-19T12:17:57;0.33;;;0.33;;
20110;SDS011;10216;42.658;23.248;2023-04-19T12:22:53;0.60;;;0.60;;
20110;SDS011;10216;42.658;23.248;2023-04-19T12:25:18;0.43;;;0.43;;
20110;SDS011;10216;42.658;23.248;2023-04-19T12:27:44;0.30;;;0.30;;
20110;SDS011;10216;42.658;23.248;2023-04-19T12:30:09;0.50;;;0.50;;
20110;SDS011;10216;42.658;23.248;2023-04-19T12:32:34;0.50;;;0.50;;
20110;SDS011;10216;42.658;23.248;2023-04-19T12:34:59;0.60;;;0.60;;
20110;SDS011;10216;42.658;23.248;2023-04-19T12:37:25;0.50;;;0.50;;
20110;SDS011;10216;42.658;23.248;2023-04-19T12:39:50;0.60;;;0.60;;
20110;SDS011;10216;42.658;23.248;2023-04-19T12:42:15;0.83;;;0.80;;
20110;SDS011;10216;42.658;23.248;2023-04-19T12:44:40;1.60;;;1.00;;
20110;SDS011;10216;42.658;23.248;2023-04-19T12:47:06;1.70;;;1.30;;
20110;SDS011;10216;42.658;23.248;2023-04-19T12:49:32;1.70;;;1.20;;
20110;SDS011;10216;42.658;23.248;2023-04-19T12:51:58;1.10;;;1.00;;
20110;SDS011;10216;42.658;23.248;2023-04-19T12:54:23;1.60;;;1.37;;
20110;SDS011;10216;42.658;23.248;2023-04-19T12:56:48;2.70;;;1.40;;
20110;SDS011;10216;42.658;23.248;2023-04-19T12:59:13;1.37;;;1.27;;
20110;SDS011;10216;42.658;23.248;2023-04-19T13:01:39;1.97;;;1.23;;
20110;SDS011;10216;42.658;23.248;2023-04-19T13:04:04;1.60;;;1.50;;
20110;SDS011;10216;42.658;23.248;2023-04-19T13:06:31;2.10;;;1.90;;
20110;SDS011;10216;42.658;23.248;2023-04-19T13:08:57;2.20;;;2.00;;
20110;SDS011;10216;42.658;23.248;2023-04-19T13:11:22;2.00;;;1.83;;
20110;SDS011;10216;42.658;23.248;2023-04-19T13:13:48;1.83;;;1.57;;
20110;SDS011;10216;42.658;23.248;2023-04-19T13:16:14;1.73;;;1.30;;
20110;SDS011;10216;42.658;23.248;2023-04-19T13:18:39;1.00;;;0.90;;
20110;SDS011;10216;42.658;23.248;2023-04-19T13:21:05;0.60;;;0.50;;
20110;SDS011;10216;42.658;23.248;2023-04-19T13:23:30;0.50;;;0.50;;
20110;SDS011;10216;42.658;23.248;2023-04-19T13:25:57;0.83;;;0.50;;
20110;SDS011;10216;42.658;23.248;2023-04-19T13:28:22;0.43;;;0.43;;
20110;SDS011;10216;42.658;23.248;2023-04-19T13:30:47;0.40;;;0.40;;
20110;SDS011;10216;42.658;23.248;2023-04-19T13:33:13;0.30;;;0.30;;
20110;SDS011;10216;42.658;23.248;2023-04-19T13:35:40;1.53;;;1.20;;
20110;SDS011;10216;42.658;23.248;2023-04-19T13:38:05;0.40;;;0.40;;
20110;SDS011;10216;42.658;23.248;2023-04-19T13:40:31;0.80;;;0.50;;
20110;SDS011;10216;42.658;23.248;2023-04-19T13:42:56;0.40;;;0.40;;
20110;SDS011;10216;42.658;23.248;2023-04-19T13:45:21;0.50;;;0.40;;
20110;SDS011;10216;42.658;23.248;2023-04-19T13:47:49;0.67;;;0.67;;
20110;SDS011;10216;42.658;23.248;2023-04-19T13:50:14;0.67;;;0.60;;
20110;SDS011;10216;42.658;23.248;2023-04-19T13:52:40;1.33;;;1.17;;
20110;SDS011;10216;42.658;23.248;2023-04-19T13:55:05;0.90;;;0.90;;
20110;SDS011;10216;42.658;23.248;2023-04-19T13:57:30;1.43;;;0.70;;
20110;SDS011;10216;42.658;23.248;2023-04-19T13:59:55;2.03;;;1.27;;
20110;SDS011;10216;42.658;23.248;2023-04-19T14:02:21;1.00;;;0.77;;
20110;SDS011;10216;42.658;23.248;2023-04-19T14:04:46;1.13;;;1.03;;
20110;SDS011;10216;42.658;23.248;2023-04-19T14:07:11;1.20;;;0.97;;
20110;SDS011;10216;42.658;23.248;2023-04-19T14:09:37;1.20;;;0.80;;
20110;SDS011;10216;42.658;23.248;2023-04-19T14:12:02;0.80;;;0.80;;
20110;SDS011;10216;42.658;23.248;2023-04-19T14:14:28;2.27;;;1.03;;
20110;SDS011;10216;42.658;23.248;2023-04-19T14:16:53;1.00;;;0.90;;
20110;SDS011;10216;42.658;23.248;2023-04-19T14:19:18;0.77;;;0.77;;
20110;SDS011;10216;42.658;23.248;2023-04-19T14:21:44;3.10;;;0.90;;
20110;SDS011;10216;42.658;23.248;2023-04-19T14:24:09;1.57;;;1.20;;
20110;SDS011;10216;42.658;23.248;2023-04-19T14:26:34;1.30;;;1.20;;
20110;SDS011;10216;42.658;23.248;2023-04-19T14:29:00;1.67;;;1.07;;
20110;SDS011;10216;42.658;23.248;2023-04-19T14:31:25;1.40;;;1.20;;
20110;SDS011;10216;42.658;23.248;2023-04-19T14:33:50;1.90;;;1.27;;
20110;SDS011;10216;42.658;23.248;2023-04-19T14:36:16;1.10;;;1.00;;
20110;SDS011;10216;42.658;23.248;2023-04-19T14:38:41;0.90;;;0.90;;
20110;SDS011;10216;42.658;23.248;2023-04-19T14:41:06;1.60;;;1.50;;
20110;SDS011;10216;42.658;23.248;2023-04-19T14:43:31;0.80;;;0.80;;
20110;SDS011;10216;42.658;23.248;2023-04-19T14:45:57;1.60;;;1.27;;
20110;SDS011;10216;42.658;23.248;2023-04-19T14:48:23;1.70;;;1.60;;
20110;SDS011;10216;42.658;23.248;2023-04-19T14:50:48;1.27;;;1.17;;